Time;durP1;ratioP1;P1;durP2;ratioP2;P2;SDS_P1;SDS_P2;PMS_P1;PMS_P2;Temp;Humidity;BMP_temperature;BMP_pressure;BME280_temperature;BME280_humidity;BME280_pressure;Samples;Min_cycle;Max_cycle;Signal;HPM_P1;HPM_P2
2022/10/14 00:00:06;;;;;;;0.20;0.20;;;;;;;;;;5093510;28;20028;-62
2022/10/14 00:02:33;;;;;;;0.52;0.32;;;;;;;;;;5094464;28;20028;-62
2022/10/14 00:05:00;;;;;;;5.20;0.40;;;;;;;;;;5081863;28;20032;-62
2022/10/14 00:07:34;;;;;;;0.87;0.53;;;;;;;;;;5089588;28;20032;-62
2022/10/14 00:10:01;;;;;;;1.48;0.63;;;;;;;;;;5073055;28;20039;-62
2022/10/14 00:12:28;;;;;;;0.10;0.10;;;;;;;;;;5078713;28;20016;-63
2022/10/14 00:14:55;;;;;;;0.23;0.13;;;;;;;;;;5070257;28;20111;-61
2022/10/14 00:17:22;;;;;;;0.23;0.23;;;;;;;;;;5069062;28;20031;-62
2022/10/14 00:19:49;;;;;;;0.33;0.30;;;;;;;;;;5070117;28;20379;-61
2022/10/14 00:22:15;;;;;;;0.50;0.30;;;;;;;;;;5092043;28;20471;-63
2022/10/14 00:24:42;;;;;;;0.40;0.23;;;;;;;;;;5084618;28;20376;-62
2022/10/14 00:27:09;;;;;;;0.43;0.33;;;;;;;;;;5074131;28;20082;-63
2022/10/14 00:29:35;;;;;;;0.73;0.43;;;;;;;;;;5074203;28;20025;-63
2022/10/14 00:32:02;;;;;;;0.30;0.30;;;;;;;;;;5073950;28;20029;-63
2022/10/14 00:34:29;;;;;;;0.50;0.27;;;;;;;;;;5076558;28;20508;-64
2022/10/14 00:36:55;;;;;;;1.67;0.70;;;;;;;;;;5085311;28;20024;-64
2022/10/14 00:39:22;;;;;;;0.90;0.40;;;;;;;;;;5068254;28;20028;-63
2022/10/14 00:41:49;;;;;;;1.13;0.20;;;;;;;;;;5068768;28;20119;-64
2022/10/14 00:44:15;;;;;;;4.20;0.87;;;;;;;;;;5071630;28;20032;-64
2022/10/14 00:46:51;;;;;;;0.70;0.50;;;;;;;;;;5077684;28;20067;-63
2022/10/14 00:49:36;;;;;;;1.13;0.60;;;;;;;;;;5073598;28;20029;-63
2022/10/14 00:52:05;;;;;;;1.13;0.70;;;;;;;;;;5090161;28;20085;-62
2022/10/14 00:54:33;;;;;;;0.37;0.27;;;;;;;;;;5093689;28;20119;-63
2022/10/14 00:57:01;;;;;;;0.77;0.47;;;;;;;;;;5072764;28;20033;-63
2022/10/14 00:59:28;;;;;;;1.67;0.87;;;;;;;;;;5066989;28;20060;-64
2022/10/14 01:01:55;;;;;;;0.90;0.63;;;;;;;;;;5081943;28;20030;-64
2022/10/14 01:04:21;;;;;;;0.40;0.30;;;;;;;;;;5087843;28;20024;-64
2022/10/14 01:06:53;;;;;;;2.50;0.50;;;;;;;;;;5076481;28;20082;-63
2022/10/14 01:09:31;;;;;;;0.40;0.33;;;;;;;;;;5073329;28;20423;-63
2022/10/14 01:12:21;;;;;;;0.40;0.23;;;;;;;;;;5081922;28;20032;-62
2022/10/14 01:14:48;;;;;;;5.73;3.63;;;;;;;;;;5079601;28;20101;-63
2022/10/14 01:17:36;;;;;;;4.10;2.93;;;;;;;;;;5093071;28;20114;-64
2022/10/14 01:20:05;;;;;;;0.90;0.63;;;;;;;;;;5087196;28;20020;-65
2022/10/14 01:22:36;;;;;;;0.47;0.40;;;;;;;;;;5081443;28;20024;-63
2022/10/14 01:25:15;;;;;;;0.67;0.50;;;;;;;;;;5070410;28;20028;-63
2022/10/14 01:27:48;;;;;;;0.80;0.50;;;;;;;;;;5079088;28;20033;-65
2022/10/14 01:30:19;;;;;;;2.07;0.70;;;;;;;;;;5085630;28;20405;-64
2022/10/14 01:33:04;;;;;;;2.73;0.70;;;;;;;;;;5091401;28;20016;-65
2022/10/14 01:35:30;;;;;;;;;;;;;;;;;;5077577;28;20036;-63
2022/10/14 01:38:03;;;;;;;4.23;0.80;;;;;;;;;;5078805;28;20263;-62
2022/10/14 01:40:35;;;;;;;3.70;1.00;;;;;;;;;;5071741;28;20055;-62
2022/10/14 01:43:03;;;;;;;1.93;0.70;;;;;;;;;;5067365;28;20020;-63
2022/10/14 01:45:31;;;;;;;1.20;0.63;;;;;;;;;;5067522;28;20356;-63
2022/10/14 01:47:58;;;;;;;1.30;0.70;;;;;;;;;;5078583;28;20383;-64
2022/10/14 01:50:27;;;;;;;1.13;0.60;;;;;;;;;;5088249;28;20022;-62
2022/10/14 01:53:05;;;;;;;7.70;0.80;;;;;;;;;;5092597;28;20074;-63
2022/10/14 01:55:34;;;;;;;6.50;1.00;;;;;;;;;;5077237;28;20064;-62
2022/10/14 01:58:00;;;;;;;0.27;0.23;;;;;;;;;;5072416;28;20025;-62
2022/10/14 02:00:27;;;;;;;0.80;0.63;;;;;;;;;;5071975;28;20025;-61
2022/10/14 02:02:54;;;;;;;0.80;0.60;;;;;;;;;;5070094;28;20060;-62
2022/10/14 02:05:23;;;;;;;1.43;0.93;;;;;;;;;;5078722;28;20020;-62
2022/10/14 02:07:52;;;;;;;2.30;0.87;;;;;;;;;;5077613;28;20489;-63
2022/10/14 02:10:19;;;;;;;3.53;0.93;;;;;;;;;;5068134;28;20526;-64
2022/10/14 02:12:53;;;;;;;0.60;0.43;;;;;;;;;;5082731;28;20024;-64
2022/10/14 02:15:32;;;;;;;2.42;0.98;;;;;;;;;;5086579;28;20064;-62
2022/10/14 02:18:17;;;;;;;0.67;0.60;;;;;;;;;;5072188;28;20029;-64
2022/10/14 02:20:43;;;;;;;1.02;0.52;;;;;;;;;;5079272;28;20449;-63
2022/10/14 02:23:10;;;;;;;1.70;0.70;;;;;;;;;;5072306;28;20028;-64
2022/10/14 02:25:40;;;;;;;0.83;0.53;;;;;;;;;;5087784;28;20103;-63
2022/10/14 02:28:08;;;;;;;1.23;0.60;;;;;;;;;;5085053;28;20093;-63
2022/10/14 02:30:39;;;;;;;2.50;1.13;;;;;;;;;;5075769;28;20025;-63
2022/10/14 02:33:06;;;;;;;0.93;0.80;;;;;;;;;;5084277;28;20097;-63
2022/10/14 02:35:34;;;;;;;2.00;0.63;;;;;;;;;;5086802;28;20040;-63
2022/10/14 02:38:01;;;;;;;0.60;0.43;;;;;;;;;;5084396;28;20103;-64
2022/10/14 02:40:54;;;;;;;5.07;2.20;;;;;;;;;;5086857;28;20027;-65
2022/10/14 02:43:20;;;;;;;1.27;0.83;;;;;;;;;;5071682;28;20127;-64
2022/10/14 02:45:47;;;;;;;2.63;0.97;;;;;;;;;;5084072;28;20020;-64
2022/10/14 02:48:14;;;;;;;1.20;0.83;;;;;;;;;;5068541;28;20036;-64
2022/10/14 02:50:41;;;;;;;1.27;0.87;;;;;;;;;;5076167;28;20153;-63
2022/10/14 02:53:08;;;;;;;0.60;0.50;;;;;;;;;;5086906;28;20055;-63
2022/10/14 02:55:35;;;;;;;5.27;2.30;;;;;;;;;;5086681;28;20055;-64
2022/10/14 02:58:02;;;;;;;8.43;2.67;;;;;;;;;;5089224;28;20020;-64
2022/10/14 03:00:28;;;;;;;3.27;1.53;;;;;;;;;;5092226;28;20024;-65
2022/10/14 03:02:55;;;;;;;4.07;1.20;;;;;;;;;;5081881;28;20352;-67
2022/10/14 03:05:22;;;;;;;2.17;1.10;;;;;;;;;;5071546;28;20025;-65
2022/10/14 03:07:48;;;;;;;2.40;1.30;;;;;;;;;;5072077;28;20054;-63
2022/10/14 03:10:15;;;;;;;1.77;1.13;;;;;;;;;;5077478;28;20126;-63
2022/10/14 03:12:42;;;;;;;1.27;1.03;;;;;;;;;;5071522;28;20025;-65
2022/10/14 03:15:09;;;;;;;1.20;0.73;;;;;;;;;;5066423;28;20037;-64
2022/10/14 03:17:36;;;;;;;2.27;1.10;;;;;;;;;;5066927;28;20025;-64
2022/10/14 03:20:03;;;;;;;1.80;1.20;;;;;;;;;;5074945;28;20360;-64
2022/10/14 03:22:30;;;;;;;3.73;2.07;;;;;;;;;;5077492;28;20209;-64
2022/10/14 03:24:57;;;;;;;17.77;5.27;;;;;;;;;;5081576;28;20032;-65
2022/10/14 03:27:24;;;;;;;6.20;2.63;;;;;;;;;;5092657;28;20031;-66
2022/10/14 03:29:50;;;;;;;2.00;1.30;;;;;;;;;;5080711;28;20118;-64
2022/10/14 03:32:17;;;;;;;1.87;1.07;;;;;;;;;;5084222;28;20107;-63
2022/10/14 03:34:44;;;;;;;2.13;1.03;;;;;;;;;;5077518;28;20033;-64
2022/10/14 03:37:10;;;;;;;2.53;0.80;;;;;;;;;;5085655;28;20494;-64
2022/10/14 03:39:37;;;;;;;1.70;0.97;;;;;;;;;;5084068;28;20028;-64
2022/10/14 03:42:04;;;;;;;2.43;1.00;;;;;;;;;;5083114;28;20123;-63
2022/10/14 03:44:30;;;;;;;5.47;1.23;;;;;;;;;;5093194;28;20024;-63
2022/10/14 03:46:57;;;;;;;0.50;0.50;;;;;;;;;;5077466;28;20492;-64
2022/10/14 03:49:24;;;;;;;2.07;1.00;;;;;;;;;;5087571;28;20348;-63
2022/10/14 03:51:50;;;;;;;0.73;0.63;;;;;;;;;;5092006;28;20020;-63
2022/10/14 03:54:17;;;;;;;0.77;0.57;;;;;;;;;;5073456;28;20036;-64
2022/10/14 03:56:44;;;;;;;4.73;1.60;;;;;;;;;;5069505;28;20028;-64
2022/10/14 03:59:10;;;;;;;10.23;5.07;;;;;;;;;;5079533;28;20712;-63
2022/10/14 04:01:37;;;;;;;9.00;2.73;;;;;;;;;;5089205;28;20039;-63
2022/10/14 04:04:04;;;;;;;2.77;1.73;;;;;;;;;;5079348;28;20028;-63
2022/10/14 04:06:32;;;;;;;8.40;4.27;;;;;;;;;;5075501;28;20025;-64
2022/10/14 04:08:58;;;;;;;4.53;2.43;;;;;;;;;;5074591;28;20020;-63
2022/10/14 04:11:25;;;;;;;13.20;2.33;;;;;;;;;;5085440;28;20043;-63
2022/10/14 04:13:52;;;;;;;1.63;1.20;;;;;;;;;;5071413;28;20457;-64
2022/10/14 04:16:19;;;;;;;4.30;1.87;;;;;;;;;;5073918;28;20490;-63
2022/10/14 04:18:45;;;;;;;4.07;1.20;;;;;;;;;;5069260;28;20047;-63
2022/10/14 04:21:12;;;;;;;1.97;0.80;;;;;;;;;;5069335;28;20052;-63
2022/10/14 04:23:39;;;;;;;3.77;2.07;;;;;;;;;;5079020;28;20134;-64
2022/10/14 04:26:07;;;;;;;4.17;1.70;;;;;;;;;;5088889;28;20016;-63
2022/10/14 04:28:34;;;;;;;1.83;1.33;;;;;;;;;;5089153;28;20024;-62
2022/10/14 04:31:00;;;;;;;1.00;0.70;;;;;;;;;;5086200;28;20032;-63
2022/10/14 04:33:27;;;;;;;2.07;0.70;;;;;;;;;;5094323;28;20108;-62
2022/10/14 04:35:58;;;;;;;4.80;0.80;;;;;;;;;;5079466;28;20024;-62
2022/10/14 04:38:24;;;;;;;1.17;0.63;;;;;;;;;;5094195;28;20099;-64
2022/10/14 04:40:51;;;;;;;0.67;0.50;;;;;;;;;;5073121;28;20089;-63
2022/10/14 04:43:18;;;;;;;1.70;0.60;;;;;;;;;;5069045;28;20036;-63
2022/10/14 04:45:44;;;;;;;6.83;2.67;;;;;;;;;;5084891;28;20032;-63
2022/10/14 04:48:11;;;;;;;0.70;0.70;;;;;;;;;;5072488;28;20482;-63
2022/10/14 04:50:38;;;;;;;0.57;0.43;;;;;;;;;;5073889;28;20029;-64
2022/10/14 04:53:05;;;;;;;1.13;0.80;;;;;;;;;;5088693;28;20117;-63
2022/10/14 04:55:32;;;;;;;5.80;1.90;;;;;;;;;;5074206;28;20391;-65
2022/10/14 04:57:59;;;;;;;1.27;0.53;;;;;;;;;;5088764;28;20032;-62
2022/10/14 05:00:25;;;;;;;0.60;0.37;;;;;;;;;;5093030;28;20028;-63
2022/10/14 05:02:52;;;;;;;0.63;0.50;;;;;;;;;;5079453;28;20115;-63
2022/10/14 05:05:19;;;;;;;2.30;1.43;;;;;;;;;;5068515;28;20025;-63
2022/10/14 05:07:45;;;;;;;2.90;1.20;;;;;;;;;;5080609;28;20040;-64
2022/10/14 05:10:12;;;;;;;0.83;0.50;;;;;;;;;;5087830;28;20024;-63
2022/10/14 05:12:39;;;;;;;1.40;0.93;;;;;;;;;;5083991;28;20027;-63
2022/10/14 05:15:06;;;;;;;0.73;0.73;;;;;;;;;;5093588;28;20127;-63
2022/10/14 05:17:35;;;;;;;0.73;0.60;;;;;;;;;;5082520;28;20107;-63
2022/10/14 05:20:01;;;;;;;1.53;1.00;;;;;;;;;;5072758;28;20028;-63
2022/10/14 05:22:32;;;;;;;3.73;1.73;;;;;;;;;;5078259;28;20475;-63
2022/10/14 05:25:03;;;;;;;1.03;0.83;;;;;;;;;;5078948;28;20028;-63
2022/10/14 05:27:41;;;;;;;2.23;1.43;;;;;;;;;;5077778;28;20073;-64
2022/10/14 05:30:11;;;;;;;2.30;1.30;;;;;;;;;;5087909;28;20032;-63
2022/10/14 05:32:40;;;;;;;1.33;1.03;;;;;;;;;;5069209;28;20028;-64
2022/10/14 05:35:11;;;;;;;0.90;0.70;;;;;;;;;;5090560;28;20038;-63
2022/10/14 05:37:42;;;;;;;2.70;1.37;;;;;;;;;;5083967;28;20027;-63
2022/10/14 05:40:17;;;;;;;1.73;1.10;;;;;;;;;;5082488;28;20024;-63
2022/10/14 05:42:48;;;;;;;1.25;0.98;;;;;;;;;;5092003;28;20044;-63
2022/10/14 05:45:22;;;;;;;1.57;1.23;;;;;;;;;;5091543;28;20359;-62
2022/10/14 05:47:53;;;;;;;0.97;0.83;;;;;;;;;;5080938;28;20129;-63
2022/10/14 05:50:24;;;;;;;2.67;0.97;;;;;;;;;;5067704;28;20074;-63
2022/10/14 05:52:55;;;;;;;1.33;0.90;;;;;;;;;;5067760;28;20025;-62
2022/10/14 05:55:30;;;;;;;2.83;1.13;;;;;;;;;;5067325;28;20121;-63
2022/10/14 05:58:04;;;;;;;1.65;1.27;;;;;;;;;;5079785;28;20102;-63
2022/10/14 06:00:38;;;;;;;1.80;1.30;;;;;;;;;;5092441;28;20023;-63
2022/10/14 06:03:16;;;;;;;1.80;0.60;;;;;;;;;;5092306;28;20090;-63
2022/10/14 06:05:47;;;;;;;0.57;0.57;;;;;;;;;;5075350;28;20546;-62
2022/10/14 06:08:20;;;;;;;1.20;0.90;;;;;;;;;;5072347;28;20036;-63
2022/10/14 06:10:51;;;;;;;1.53;1.20;;;;;;;;;;5067450;28;20025;-63
2022/10/14 06:13:22;;;;;;;5.17;1.20;;;;;;;;;;5083295;28;20028;-63
2022/10/14 06:16:03;;;;;;;0.90;0.80;;;;;;;;;;5083276;28;20126;-63
2022/10/14 06:18:35;;;;;;;1.40;0.80;;;;;;;;;;5088589;28;20028;-63
2022/10/14 06:21:06;;;;;;;1.10;1.00;;;;;;;;;;5092457;28;20413;-62
2022/10/14 06:23:40;;;;;;;1.33;1.00;;;;;;;;;;5075528;28;20028;-63
2022/10/14 06:26:11;;;;;;;7.70;1.07;;;;;;;;;;5073983;28;20028;-63
2022/10/14 06:28:42;;;;;;;2.33;0.97;;;;;;;;;;5083842;28;20032;-63
2022/10/14 06:31:16;;;;;;;0.40;0.40;;;;;;;;;;5089624;28;20089;-63
2022/10/14 06:33:59;;;;;;;0.97;0.83;;;;;;;;;;5087170;28;20020;-62
2022/10/14 06:36:37;;;;;;;1.83;1.10;;;;;;;;;;5077553;28;20111;-62
2022/10/14 06:39:14;;;;;;;0.60;0.60;;;;;;;;;;5084772;28;20013;-63
2022/10/14 06:41:48;;;;;;;0.90;0.73;;;;;;;;;;5072057;28;20081;-63
2022/10/14 06:44:19;;;;;;;1.02;0.80;;;;;;;;;;5075218;28;20030;-63
2022/10/14 06:46:50;;;;;;;1.87;0.90;;;;;;;;;;5075695;28;20025;-63
2022/10/14 06:49:24;;;;;;;2.60;1.13;;;;;;;;;;5071815;28;20024;-62
2022/10/14 06:52:01;;;;;;;2.77;1.20;;;;;;;;;;5072048;28;20032;-63
2022/10/14 06:54:31;;;;;;;0.77;0.60;;;;;;;;;;5068533;28;20095;-63
2022/10/14 06:57:02;;;;;;;0.87;0.73;;;;;;;;;;5078171;28;20024;-63
2022/10/14 06:59:33;;;;;;;3.87;1.47;;;;;;;;;;5068892;28;20035;-63
2022/10/14 07:02:04;;;;;;;0.50;0.50;;;;;;;;;;5083004;28;20032;-62
2022/10/14 07:04:35;;;;;;;3.30;0.83;;;;;;;;;;5074593;28;20032;-63
2022/10/14 07:07:06;;;;;;;1.00;0.73;;;;;;;;;;5075710;28;20068;-63
2022/10/14 07:09:48;;;;;;;1.23;0.90;;;;;;;;;;5076664;28;20032;-62
2022/10/14 07:12:22;;;;;;;1.60;0.97;;;;;;;;;;5075603;28;20036;-62
2022/10/14 07:14:54;;;;;;;1.80;1.25;;;;;;;;;;5076286;28;20114;-62
2022/10/14 07:17:25;;;;;;;1.23;0.70;;;;;;;;;;5075382;28;20024;-63
2022/10/14 07:19:59;;;;;;;1.13;0.83;;;;;;;;;;5081232;28;20082;-63
2022/10/14 07:22:35;;;;;;;1.35;0.88;;;;;;;;;;5070603;28;20024;-63
2022/10/14 07:25:09;;;;;;;0.93;0.70;;;;;;;;;;5075226;28;20020;-63
2022/10/14 07:27:40;;;;;;;0.88;0.73;;;;;;;;;;5081085;28;20016;-63
2022/10/14 07:30:11;;;;;;;1.17;0.80;;;;;;;;;;5081039;28;20021;-63
2022/10/14 07:32:42;;;;;;;1.53;1.10;;;;;;;;;;5076642;28;20048;-63
2022/10/14 07:35:13;;;;;;;1.67;1.20;;;;;;;;;;5095262;28;20036;-63
2022/10/14 07:37:47;;;;;;;2.73;1.10;;;;;;;;;;5073942;28;20529;-63
2022/10/14 07:40:18;;;;;;;1.15;0.77;;;;;;;;;;5081005;28;20111;-63
2022/10/14 07:42:51;;;;;;;0.90;0.73;;;;;;;;;;5090056;28;20457;-63
2022/10/14 07:45:19;;;;;;;0.93;0.80;;;;;;;;;;5089985;28;20020;-63
2022/10/14 07:47:50;;;;;;;1.53;0.97;;;;;;;;;;5091589;28;20042;-63
2022/10/14 07:50:17;;;;;;;1.73;1.10;;;;;;;;;;5095264;28;20020;-63
2022/10/14 07:52:44;;;;;;;1.40;0.97;;;;;;;;;;5095207;28;20035;-63
2022/10/14 07:55:10;;;;;;;0.97;0.83;;;;;;;;;;5095110;28;20085;-62
2022/10/14 07:57:37;;;;;;;1.43;1.00;;;;;;;;;;5094610;28;20501;-63
2022/10/14 08:00:04;;;;;;;2.00;1.47;;;;;;;;;;5093415;28;20655;-62
2022/10/14 08:02:31;;;;;;;3.60;1.57;;;;;;;;;;5088749;28;20085;-62
2022/10/14 08:04:57;;;;;;;2.10;1.43;;;;;;;;;;5090060;28;20107;-63
2022/10/14 08:07:25;;;;;;;1.33;1.00;;;;;;;;;;5087998;28;20095;-63
2022/10/14 08:09:53;;;;;;;2.37;1.40;;;;;;;;;;5069668;28;20039;-63
2022/10/14 08:12:20;;;;;;;2.57;1.27;;;;;;;;;;5074249;28;20467;-62
2022/10/14 08:14:46;;;;;;;3.07;1.73;;;;;;;;;;5073951;28;20064;-63
2022/10/14 08:17:13;;;;;;;1.83;1.27;;;;;;;;;;5080488;28;20020;-63
2022/10/14 08:19:40;;;;;;;1.57;1.07;;;;;;;;;;5074526;28;20021;-62
2022/10/14 08:22:06;;;;;;;2.70;1.40;;;;;;;;;;5078400;28;20024;-63
2022/10/14 08:24:33;;;;;;;1.27;1.07;;;;;;;;;;5089220;28;20024;-62
2022/10/14 08:27:00;;;;;;;10.23;1.53;;;;;;;;;;5084638;28;20020;-62
2022/10/14 08:29:26;;;;;;;2.47;1.80;;;;;;;;;;5077798;28;20024;-63
2022/10/14 08:31:54;;;;;;;2.53;1.53;;;;;;;;;;5068732;28;20036;-63
2022/10/14 08:34:23;;;;;;;5.30;1.60;;;;;;;;;;5088865;28;20115;-63
2022/10/14 08:36:50;;;;;;;1.43;0.93;;;;;;;;;;5082593;28;20099;-63
2022/10/14 08:39:18;;;;;;;3.03;2.13;;;;;;;;;;5089540;28;22257;-63
2022/10/14 08:41:59;;;;;;;4.43;1.77;;;;;;;;;;5073954;28;20055;-62
2022/10/14 08:44:28;;;;;;;3.20;2.00;;;;;;;;;;5080058;28;20020;-62
2022/10/14 08:46:59;;;;;;;1.73;1.40;;;;;;;;;;5087429;28;20075;-63
2022/10/14 08:49:30;;;;;;;1.37;0.87;;;;;;;;;;5069436;28;20017;-62
2022/10/14 08:52:05;;;;;;;1.80;1.33;;;;;;;;;;5069101;28;20028;-62
2022/10/14 08:54:36;;;;;;;0.90;0.70;;;;;;;;;;5069355;28;20036;-62
2022/10/14 08:57:04;;;;;;;1.17;0.80;;;;;;;;;;5077403;28;20027;-62
2022/10/14 08:59:32;;;;;;;1.13;0.60;;;;;;;;;;5093524;28;20081;-62
2022/10/14 09:02:10;;;;;;;1.47;0.90;;;;;;;;;;5093629;28;20043;-62
2022/10/14 09:04:37;;;;;;;2.37;1.23;;;;;;;;;;5084124;28;20040;-63
2022/10/14 09:07:04;;;;;;;4.00;1.60;;;;;;;;;;5075390;28;20024;-62
2022/10/14 09:09:40;;;;;;;1.17;1.03;;;;;;;;;;5088257;28;20615;-62
2022/10/14 09:12:11;;;;;;;2.90;1.40;;;;;;;;;;5088293;28;20036;-63
2022/10/14 09:14:41;;;;;;;2.70;1.30;;;;;;;;;;5088240;28;20036;-63
2022/10/14 09:17:28;;;;;;;2.67;1.50;;;;;;;;;;5085137;28;20494;-63
2022/10/14 09:20:04;;;;;;;1.47;1.00;;;;;;;;;;5076497;28;20069;-62
2022/10/14 09:22:30;;;;;;;0.90;0.67;;;;;;;;;;5084678;28;20356;-63
2022/10/14 09:24:59;;;;;;;1.10;0.90;;;;;;;;;;5073203;28;20025;-62
2022/10/14 09:27:28;;;;;;;1.27;0.87;;;;;;;;;;5079439;28;20654;-63
2022/10/14 09:29:57;;;;;;;1.10;1.00;;;;;;;;;;5090017;28;20052;-62
2022/10/14 09:32:26;;;;;;;0.67;0.67;;;;;;;;;;5072360;28;20064;-62
2022/10/14 09:34:54;;;;;;;1.57;1.17;;;;;;;;;;5070270;28;20067;-63
2022/10/14 09:37:23;;;;;;;5.10;2.27;;;;;;;;;;5074211;28;20028;-62
2022/10/14 09:39:51;;;;;;;1.80;1.53;;;;;;;;;;5083041;28;20028;-62
2022/10/14 09:42:28;;;;;;;5.63;1.07;;;;;;;;;;5072735;28;20024;-62
2022/10/14 09:45:15;;;;;;;8.53;1.13;;;;;;;;;;5072159;28;20025;-62
2022/10/14 09:47:45;;;;;;;1.00;0.83;;;;;;;;;;5085729;28;20024;-63
2022/10/14 09:50:20;;;;;;;1.10;0.70;;;;;;;;;;5093140;28;20020;-62
2022/10/14 09:52:46;;;;;;;;;;;;;;;;;;5070393;28;20028;-62
2022/10/14 09:55:19;;;;;;;0.70;0.50;;;;;;;;;;5067396;28;19919;-61
2022/10/14 09:57:45;;;;;;;1.20;0.60;;;;;;;;;;5076532;28;20479;-61
2022/10/14 10:00:27;;;;;;;0.83;0.80;;;;;;;;;;5087476;28;20032;-64
2022/10/14 10:02:54;;;;;;;0.60;0.60;;;;;;;;;;5090920;28;20024;-61
2022/10/14 10:05:25;;;;;;;0.87;0.70;;;;;;;;;;5092132;28;20446;-61
2022/10/14 10:08:00;;;;;;;0.47;0.37;;;;;;;;;;5082916;28;20095;-61
2022/10/14 10:10:30;;;;;;;0.50;0.50;;;;;;;;;;5072495;28;20024;-61
2022/10/14 10:12:59;;;;;;;0.63;0.50;;;;;;;;;;5072429;28;20024;-61
2022/10/14 10:15:26;;;;;;;1.43;0.73;;;;;;;;;;5067429;28;20451;-61
2022/10/14 10:17:53;;;;;;;4.70;0.70;;;;;;;;;;5076344;28;20028;-62
2022/10/14 10:20:22;;;;;;;0.93;0.73;;;;;;;;;;5087407;28;20028;-61
2022/10/14 10:22:49;;;;;;;1.03;0.80;;;;;;;;;;5077577;28;20028;-61
2022/10/14 10:25:18;;;;;;;0.73;0.60;;;;;;;;;;5089253;28;20032;-61
2022/10/14 10:27:46;;;;;;;1.87;1.03;;;;;;;;;;5083999;28;20475;-61
2022/10/14 10:30:19;;;;;;;1.17;0.80;;;;;;;;;;5072397;28;20051;-62
2022/10/14 10:33:01;;;;;;;1.20;0.70;;;;;;;;;;5071892;28;20031;-62
2022/10/14 10:35:42;;;;;;;0.80;0.57;;;;;;;;;;5078741;28;20870;-61
2022/10/14 10:38:23;;;;;;;0.60;0.50;;;;;;;;;;5090424;28;20566;-61
2022/10/14 10:41:08;;;;;;;1.20;0.73;;;;;;;;;;5080170;28;20032;-61
2022/10/14 10:43:37;;;;;;;0.98;0.60;;;;;;;;;;5087229;28;20111;-61
2022/10/14 10:46:22;;;;;;;0.53;0.43;;;;;;;;;;5092353;28;20028;-61
2022/10/14 10:49:01;;;;;;;0.52;0.52;;;;;;;;;;5081596;28;20031;-61
2022/10/14 10:51:30;;;;;;;2.03;1.03;;;;;;;;;;5076204;28;20032;-61
2022/10/14 10:54:01;;;;;;;0.40;0.40;;;;;;;;;;5093437;28;20057;-62
2022/10/14 10:56:43;;;;;;;0.83;0.73;;;;;;;;;;5082322;28;20028;-61
2022/10/14 10:59:21;;;;;;;0.53;0.43;;;;;;;;;;5093101;28;20064;-61
2022/10/14 11:02:12;;;;;;;1.53;1.07;;;;;;;;;;5090763;28;20027;-61
2022/10/14 11:04:42;;;;;;;0.80;0.70;;;;;;;;;;5090755;28;20028;-61
2022/10/14 11:12:58;;;;;;;3.83;2.13;;;;;;;;;;5076265;28;20556;-61
2022/10/14 11:15:40;;;;;;;1.27;0.90;;;;;;;;;;5075602;28;20028;-61
2022/10/14 11:18:19;;;;;;;0.50;0.50;;;;;;;;;;5085207;28;20021;-61
2022/10/14 11:20:55;;;;;;;1.43;0.90;;;;;;;;;;5073967;28;20024;-61
2022/10/14 11:23:21;;;;;;;1.33;1.03;;;;;;;;;;5084093;28;20035;-61
2022/10/14 11:26:00;;;;;;;0.90;0.50;;;;;;;;;;5090547;28;20020;-61
2022/10/14 11:28:50;;;;;;;1.03;0.93;;;;;;;;;;5078186;28;20034;-61
2022/10/14 11:31:17;;;;;;;1.37;1.07;;;;;;;;;;5092885;28;20071;-61
2022/10/14 11:33:49;;;;;;;1.10;0.80;;;;;;;;;;5086469;28;20032;-61
2022/10/14 11:36:21;;;;;;;2.23;1.13;;;;;;;;;;5084411;28;20390;-61
2022/10/14 11:39:06;;;;;;;2.83;1.47;;;;;;;;;;5095277;28;20024;-62
2022/10/14 11:41:51;;;;;;;0.40;0.40;;;;;;;;;;5079283;28;20031;-61
2022/10/14 11:44:44;;;;;;;0.75;0.43;;;;;;;;;;5078463;28;20463;-61
2022/10/14 11:47:14;;;;;;;2.60;1.60;;;;;;;;;;5067581;28;20127;-61
2022/10/14 11:49:53;;;;;;;1.93;0.97;;;;;;;;;;5070095;28;20507;-61
2022/10/14 11:52:23;;;;;;;6.23;1.17;;;;;;;;;;5061891;28;20024;-61
2022/10/14 11:55:00;;;;;;;0.70;0.70;;;;;;;;;;5075814;28;20028;-62
2022/10/14 11:57:37;;;;;;;1.43;0.70;;;;;;;;;;5088300;28;20017;-61
2022/10/14 12:00:05;;;;;;;4.57;1.17;;;;;;;;;;5084995;28;20441;-61
2022/10/14 12:02:45;;;;;;;6.53;3.13;;;;;;;;;;5094641;28;20073;-61
2022/10/14 12:05:35;;;;;;;16.20;2.13;;;;;;;;;;5091129;28;20804;-61
2022/10/14 12:08:13;;;;;;;1.93;1.07;;;;;;;;;;5023252;28;20169;-61
2022/10/14 12:11:00;;;;;;;0.90;0.63;;;;;;;;;;5069657;28;20033;-61
2022/10/14 12:13:34;;;;;;;1.67;1.10;;;;;;;;;;5071685;28;20089;-61
2022/10/14 12:16:04;;;;;;;1.60;0.93;;;;;;;;;;5084587;28;20040;-62
2022/10/14 12:18:31;;;;;;;1.97;1.60;;;;;;;;;;5074461;28;20075;-61
2022/10/14 12:21:09;;;;;;;2.67;1.47;;;;;;;;;;5074311;28;20016;-62
2022/10/14 12:24:02;;;;;;;1.43;0.90;;;;;;;;;;5086355;28;20103;-62
2022/10/14 12:26:31;;;;;;;1.90;1.23;;;;;;;;;;5079172;28;20067;-61
2022/10/14 12:28:58;;;;;;;4.17;2.20;;;;;;;;;;5089854;28;20470;-61
2022/10/14 12:31:28;;;;;;;24.53;3.77;;;;;;;;;;5077513;28;20029;-61
2022/10/14 12:34:13;;;;;;;5.40;2.43;;;;;;;;;;5083712;28;20054;-61
2022/10/14 12:36:40;;;;;;;1.48;1.05;;;;;;;;;;5084265;28;20051;-61
2022/10/14 12:39:19;;;;;;;1.20;0.83;;;;;;;;;;5091686;28;20111;-61
2022/10/14 12:41:59;;;;;;;2.87;1.53;;;;;;;;;;5073943;28;20024;-61
2022/10/14 12:44:34;;;;;;;1.40;0.80;;;;;;;;;;5074092;28;20021;-62
2022/10/14 12:47:00;;;;;;;2.75;0.80;;;;;;;;;;5081400;28;20528;-61
2022/10/14 12:49:29;;;;;;;1.40;0.93;;;;;;;;;;5092896;28;20031;-61
2022/10/14 12:51:57;;;;;;;0.93;0.77;;;;;;;;;;5080642;28;20082;-61
2022/10/14 12:54:24;;;;;;;2.23;1.47;;;;;;;;;;5068439;28;20075;-61
2022/10/14 12:56:54;;;;;;;10.27;1.60;;;;;;;;;;5067975;28;20539;-61
2022/10/14 12:59:31;;;;;;;5.20;1.00;;;;;;;;;;5068720;28;20537;-61
2022/10/14 13:02:00;;;;;;;3.23;1.60;;;;;;;;;;5080462;28;20028;-61
2022/10/14 13:04:27;;;;;;;2.67;1.83;;;;;;;;;;5082179;28;20070;-61
2022/10/14 13:07:11;;;;;;;3.07;1.73;;;;;;;;;;5081174;28;20035;-61
2022/10/14 13:09:38;;;;;;;15.13;2.00;;;;;;;;;;5093505;28;20445;-61
2022/10/14 13:12:05;;;;;;;3.40;0.77;;;;;;;;;;5091686;28;20035;-61
2022/10/14 13:14:34;;;;;;;1.50;0.80;;;;;;;;;;5088099;28;20068;-61
2022/10/14 13:17:23;;;;;;;1.37;1.00;;;;;;;;;;5068940;28;20658;-62
2022/10/14 13:19:50;;;;;;;2.33;1.30;;;;;;;;;;5076469;28;20146;-60
2022/10/14 13:22:17;;;;;;;2.50;1.10;;;;;;;;;;5078577;28;20035;-60
2022/10/14 13:24:43;;;;;;;1.87;1.60;;;;;;;;;;5072927;28;20545;-61
2022/10/14 13:27:32;;;;;;;5.07;1.83;;;;;;;;;;5073092;28;20024;-61
2022/10/14 13:30:25;;;;;;;4.90;2.67;;;;;;;;;;5075727;28;20052;-61
2022/10/14 13:32:55;;;;;;;6.10;3.77;;;;;;;;;;5080899;28;20028;-61
2022/10/14 13:35:42;;;;;;;4.63;3.03;;;;;;;;;;5088684;28;20039;-63
2022/10/14 13:38:14;;;;;;;4.33;3.27;;;;;;;;;;5067672;28;20112;-61
2022/10/14 13:40:48;;;;;;;7.00;3.80;;;;;;;;;;5082117;28;20031;-61
2022/10/14 13:43:25;;;;;;;8.20;4.63;;;;;;;;;;5087733;28;20437;-61
2022/10/14 13:46:10;;;;;;;6.13;3.93;;;;;;;;;;5091759;28;20513;-61
2022/10/14 13:48:39;;;;;;;10.20;5.15;;;;;;;;;;5091916;28;20030;-62
2022/10/14 13:51:15;;;;;;;10.37;7.30;;;;;;;;;;5071344;28;20434;-62
2022/10/14 13:53:55;;;;;;;20.50;7.90;;;;;;;;;;5086501;28;20493;-62
2022/10/14 13:56:26;;;;;;;22.50;9.10;;;;;;;;;;5072152;28;20020;-61
2022/10/14 13:58:53;;;;;;;9.37;5.77;;;;;;;;;;5069671;28;20035;-62
2022/10/14 14:01:21;;;;;;;18.37;5.60;;;;;;;;;;5087474;28;20035;-62
2022/10/14 14:03:56;;;;;;;6.47;5.20;;;;;;;;;;5084998;28;20367;-62
2022/10/14 14:06:23;;;;;;;7.70;3.88;;;;;;;;;;5067540;28;20028;-62
2022/10/14 14:08:59;;;;;;;6.37;4.13;;;;;;;;;;5072325;28;20063;-62
2022/10/14 14:11:27;;;;;;;7.93;4.00;;;;;;;;;;5092374;28;20020;-62
2022/10/14 14:14:03;;;;;;;9.03;3.77;;;;;;;;;;5085621;28;20013;-62
2022/10/14 14:16:34;;;;;;;11.27;3.30;;;;;;;;;;5073346;28;20364;-62
2022/10/14 14:19:01;;;;;;;5.77;3.33;;;;;;;;;;5070822;28;20025;-62
2022/10/14 14:21:28;;;;;;;4.60;2.40;;;;;;;;;;5069788;28;20038;-62
2022/10/14 14:23:56;;;;;;;5.90;2.67;;;;;;;;;;5087048;28;20034;-62
2022/10/14 14:26:29;;;;;;;2.37;1.87;;;;;;;;;;5072401;28;20036;-62
2022/10/14 14:28:55;;;;;;;2.60;1.80;;;;;;;;;;5086452;28;20543;-62
2022/10/14 14:31:24;;;;;;;5.57;3.77;;;;;;;;;;5090799;28;20028;-62
2022/10/14 14:33:51;;;;;;;5.13;2.30;;;;;;;;;;5086119;28;20066;-62
2022/10/14 14:36:18;;;;;;;3.57;2.13;;;;;;;;;;5080433;28;20032;-62
2022/10/14 14:38:52;;;;;;;5.73;2.70;;;;;;;;;;5078708;28;20396;-62
2022/10/14 14:41:21;;;;;;;3.87;2.60;;;;;;;;;;5071351;28;20076;-63
2022/10/14 14:43:49;;;;;;;9.73;2.47;;;;;;;;;;5066723;28;20059;-63
2022/10/14 14:46:28;;;;;;;6.30;3.83;;;;;;;;;;5068085;28;20133;-63
2022/10/14 14:48:56;;;;;;;2.77;1.77;;;;;;;;;;5067015;28;20046;-63
2022/10/14 14:51:23;;;;;;;8.70;3.70;;;;;;;;;;5068192;28;20421;-64
2022/10/14 14:53:53;;;;;;;3.00;2.07;;;;;;;;;;5073314;28;20025;-64
2022/10/14 14:56:25;;;;;;;2.87;1.77;;;;;;;;;;5086865;28;20409;-64
2022/10/14 14:58:53;;;;;;;5.63;2.07;;;;;;;;;;5072103;28;20070;-62
2022/10/14 15:01:22;;;;;;;2.43;1.50;;;;;;;;;;5072117;28;20016;-62
2022/10/14 15:03:55;;;;;;;2.50;1.00;;;;;;;;;;5080822;28;20036;-62
2022/10/14 15:06:22;;;;;;;1.77;1.27;;;;;;;;;;5087174;28;20107;-62
2022/10/14 15:08:51;;;;;;;0.90;0.70;;;;;;;;;;5069045;28;20042;-63
2022/10/14 15:11:18;;;;;;;2.30;1.27;;;;;;;;;;5066924;28;20032;-62